Řízení letového provozu České republiky
Letiste: LKKV Aktualizace: 22.09.2019 09:30:30  UTC
 METAR LKKV 22.09. 09:30 ...
METAR LKKV 220930Z 04007KT 360V070 CAVOK 15/05 Q1016 RMK REG QNH 1013=
 TAF LKKV 22.09. 05:00 ...
TAF LKKV 220500Z 2206/2312 09006KT CAVOK      BECMG 2300/2302 VRB02KT=